createdAt,value
2023-03-29T02:22:46.630Z,100543.64
2023-03-29T02:37:39.258Z,100544.52
2023-03-29T02:52:32.150Z,100578.48
2023-03-29T03:07:26.524Z,100547.89
2023-03-29T03:22:16.704Z,100553.21
2023-03-29T03:37:07.190Z,100556.17
2023-03-29T03:51:58.285Z,100549.32
2023-03-29T04:06:48.261Z,100551.42
2023-03-29T04:21:39.252Z,100560.58
2023-03-29T04:36:29.343Z,100555.30
2023-03-29T04:51:20.238Z,100560.00
2023-03-29T05:06:11.471Z,100581.66
2023-03-29T05:21:02.963Z,100580.91
2023-03-29T05:36:03.030Z,100586.30
2023-03-29T05:50:57.368Z,100580.06
2023-03-29T06:05:49.735Z,100578.68
2023-03-29T06:35:30.395Z,100580.53
2023-03-29T06:50:21.501Z,100582.97
2023-03-29T07:05:12.561Z,100614.36
2023-03-29T07:20:03.440Z,100615.00
2023-03-29T08:04:36.952Z,100633.77
2023-03-29T08:19:28.257Z,100617.33
2023-03-29T08:34:19.965Z,100600.03
2023-03-29T08:49:12.919Z,100584.64
2023-03-29T09:04:06.535Z,100582.89
2023-03-29T09:19:09.656Z,100575.98
2023-03-29T09:34:04.898Z,100568.58
2023-03-29T09:48:56.988Z,100565.20
2023-03-29T10:03:49.038Z,100573.53
2023-03-29T10:18:40.012Z,100549.66
2023-03-29T10:33:32.558Z,100516.86
2023-03-29T10:48:25.056Z,100513.06
2023-03-29T11:03:51.937Z,100485.88
2023-03-29T11:18:53.140Z,100483.02
2023-03-29T11:33:52.084Z,100479.78
2023-03-29T12:04:07.632Z,100480.97
2023-03-29T12:18:59.332Z,100485.91
2023-03-29T13:04:01.449Z,100478.09
2023-03-29T13:18:53.872Z,100496.62
2023-03-29T13:34:02.427Z,100464.11
2023-03-29T13:48:59.066Z,100453.58
2023-03-29T14:03:53.954Z,100436.56
2023-03-29T14:18:48.133Z,100405.00
2023-03-29T14:33:40.440Z,100392.94
2023-03-29T14:48:32.880Z,100375.14
2023-03-29T15:03:27.978Z,100353.70
2023-03-29T15:18:28.814Z,100315.92
2023-03-29T15:33:23.793Z,100310.56
2023-03-29T15:48:22.594Z,100290.42
2023-03-29T16:03:17.137Z,100275.22
2023-03-29T16:18:07.440Z,100257.12
2023-03-29T16:32:57.604Z,100239.38
2023-03-29T16:47:48.090Z,100226.98
2023-03-29T17:02:39.197Z,100217.59
2023-03-29T17:17:30.416Z,100205.77
2023-03-29T17:32:20.996Z,100187.55
2023-03-29T17:47:12.252Z,100192.95
2023-03-29T18:02:03.242Z,100191.42
2023-03-29T18:16:54.289Z,100163.28
2023-03-29T18:31:45.631Z,100182.60
2023-03-29T18:46:36.497Z,100166.61
2023-03-29T19:01:27.714Z,100178.87
2023-03-29T19:16:18.256Z,100160.26
2023-03-29T19:31:10.126Z,100135.40
2023-03-29T19:46:09.455Z,100114.70
2023-03-29T20:01:04.519Z,100113.05
2023-03-29T20:15:55.687Z,100090.03
2023-03-29T20:30:47.204Z,100064.84
2023-03-29T20:45:51.588Z,100053.02
2023-03-29T21:15:29.699Z,99998.98
2023-03-29T21:30:20.982Z,99982.34
2023-03-29T21:45:13.137Z,99977.87
2023-03-29T22:44:42.141Z,99985.44
2023-03-29T22:59:34.658Z,99996.50
2023-03-29T23:29:18.677Z,99979.87
2023-03-29T23:44:09.937Z,99965.31
2023-03-29T23:59:00.734Z,99945.36
